Port Hardy, Canada
Current Conditions -  °F | °C
As of 11:00 PM on Thursday 30 Oct 2014 (Local Time) from CYZT Reporting Station
Scattered Clouds Scattered Clouds  
Wind Chill: 41°   Ceiling: Unl
Heat Index: 45°   Visibility: 15mi
Dew Point: 43°   Wind: 7mph
Humidity: 93%   Direction: 170°S
Pressure: 29.71"   Gusts: NA
Location:  50.72°N, 127.5°W
Report Text: CYZT 310600Z 17006KT 15SM FEW058 FEW070 SCT220 07/06 A2971 RMK SC1AC1CI2 SLP062
Loading
Personal Weather Stations






























Interactive Weather Map
Tropical Storm Tracking
New forecast layout! Learn more

10-Day Weather Forecast

Advertisements
Track Severe Weather on mobile